sensor_id;sensor_type;location;lat;lon;timestamp;P1;durP1;ratioP1;P2;durP2;ratioP2
68921;SDS011;55959;51.244;5.724;2023-02-28T00:01:26;5.07;;;3.23;;
68921;SDS011;55959;51.244;5.724;2023-02-28T00:03:54;4.83;;;3.17;;
68921;SDS011;55959;51.244;5.724;2023-02-28T00:06:21;3.40;;;2.93;;
68921;SDS011;55959;51.244;5.724;2023-02-28T00:08:47;3.80;;;3.00;;
68921;SDS011;55959;51.244;5.724;2023-02-28T00:11:14;4.13;;;2.90;;
68921;SDS011;55959;51.244;5.724;2023-02-28T00:13:53;4.10;;;3.30;;
68921;SDS011;55959;51.244;5.724;2023-02-28T00:16:22;5.73;;;3.40;;
68921;SDS011;55959;51.244;5.724;2023-02-28T00:18:49;3.40;;;3.10;;
68921;SDS011;55959;51.244;5.724;2023-02-28T00:21:16;4.37;;;3.13;;
68921;SDS011;55959;51.244;5.724;2023-02-28T00:23:44;4.07;;;3.23;;
68921;SDS011;55959;51.244;5.724;2023-02-28T00:26:10;3.70;;;3.00;;
68921;SDS011;55959;51.244;5.724;2023-02-28T00:28:38;3.90;;;2.63;;
68921;SDS011;55959;51.244;5.724;2023-02-28T00:31:05;4.17;;;3.10;;
68921;SDS011;55959;51.244;5.724;2023-02-28T00:33:31;4.37;;;3.40;;
68921;SDS011;55959;51.244;5.724;2023-02-28T00:36:02;3.40;;;3.00;;
68921;SDS011;55959;51.244;5.724;2023-02-28T00:38:37;3.67;;;2.93;;
68921;SDS011;55959;51.244;5.724;2023-02-28T00:41:05;4.03;;;3.17;;
68921;SDS011;55959;51.244;5.724;2023-02-28T00:43:33;4.53;;;3.23;;
68921;SDS011;55959;51.244;5.724;2023-02-28T00:46:07;3.93;;;3.10;;
68921;SDS011;55959;51.244;5.724;2023-02-28T00:48:50;4.17;;;3.50;;
68921;SDS011;55959;51.244;5.724;2023-02-28T00:51:16;6.73;;;3.53;;
68921;SDS011;55959;51.244;5.724;2023-02-28T00:53:41;5.97;;;3.80;;
68921;SDS011;55959;51.244;5.724;2023-02-28T00:56:07;4.97;;;3.60;;
68921;SDS011;55959;51.244;5.724;2023-02-28T00:58:36;5.30;;;3.63;;
68921;SDS011;55959;51.244;5.724;2023-02-28T01:01:02;4.97;;;3.33;;
68921;SDS011;55959;51.244;5.724;2023-02-28T01:03:28;4.00;;;3.10;;
68921;SDS011;55959;51.244;5.724;2023-02-28T01:05:54;4.73;;;3.40;;
68921;SDS011;55959;51.244;5.724;2023-02-28T01:08:20;4.07;;;3.20;;
68921;SDS011;55959;51.244;5.724;2023-02-28T01:10:46;5.60;;;3.33;;
68921;SDS011;55959;51.244;5.724;2023-02-28T01:13:14;4.27;;;3.07;;
68921;SDS011;55959;51.244;5.724;2023-02-28T01:15:43;4.53;;;3.00;;
68921;SDS011;55959;51.244;5.724;2023-02-28T01:18:16;3.90;;;3.30;;
68921;SDS011;55959;51.244;5.724;2023-02-28T01:20:43;3.87;;;3.47;;
68921;SDS011;55959;51.244;5.724;2023-02-28T01:23:12;4.37;;;3.00;;
68921;SDS011;55959;51.244;5.724;2023-02-28T01:25:38;5.43;;;3.17;;
68921;SDS011;55959;51.244;5.724;2023-02-28T01:28:05;3.53;;;3.23;;
68921;SDS011;55959;51.244;5.724;2023-02-28T01:30:31;4.57;;;3.20;;
68921;SDS011;55959;51.244;5.724;2023-02-28T01:32:58;3.80;;;3.20;;
68921;SDS011;55959;51.244;5.724;2023-02-28T01:35:25;4.50;;;3.70;;
68921;SDS011;55959;51.244;5.724;2023-02-28T01:38:03;4.67;;;3.37;;
68921;SDS011;55959;51.244;5.724;2023-02-28T01:40:29;4.63;;;3.33;;
68921;SDS011;55959;51.244;5.724;2023-02-28T01:42:55;3.50;;;3.17;;
68921;SDS011;55959;51.244;5.724;2023-02-28T01:45:28;6.03;;;3.33;;
68921;SDS011;55959;51.244;5.724;2023-02-28T01:47:57;3.47;;;3.17;;
68921;SDS011;55959;51.244;5.724;2023-02-28T01:50:28;3.80;;;3.10;;
68921;SDS011;55959;51.244;5.724;2023-02-28T01:53:02;4.23;;;3.27;;
68921;SDS011;55959;51.244;5.724;2023-02-28T01:55:31;4.93;;;3.10;;
68921;SDS011;55959;51.244;5.724;2023-02-28T01:57:59;3.60;;;3.13;;
68921;SDS011;55959;51.244;5.724;2023-02-28T02:00:27;4.97;;;2.90;;
68921;SDS011;55959;51.244;5.724;2023-02-28T02:02:55;5.17;;;3.47;;
68921;SDS011;55959;51.244;5.724;2023-02-28T02:05:25;3.50;;;3.20;;
68921;SDS011;55959;51.244;5.724;2023-02-28T02:07:56;4.00;;;3.30;;
68921;SDS011;55959;51.244;5.724;2023-02-28T02:10:54;4.03;;;3.43;;
68921;SDS011;55959;51.244;5.724;2023-02-28T02:13:36;4.47;;;3.20;;
68921;SDS011;55959;51.244;5.724;2023-02-28T02:16:30;6.53;;;3.60;;
68921;SDS011;55959;51.244;5.724;2023-02-28T02:19:30;4.20;;;3.80;;
68921;SDS011;55959;51.244;5.724;2023-02-28T02:37:12;3.57;;;2.97;;
68921;SDS011;55959;51.244;5.724;2023-02-28T02:40:22;3.97;;;3.47;;
68921;SDS011;55959;51.244;5.724;2023-02-28T02:43:01;6.03;;;3.60;;
68921;SDS011;55959;51.244;5.724;2023-02-28T02:45:51;5.77;;;3.40;;
68921;SDS011;55959;51.244;5.724;2023-02-28T02:48:24;4.73;;;3.80;;
68921;SDS011;55959;51.244;5.724;2023-02-28T02:50:55;4.70;;;3.87;;
68921;SDS011;55959;51.244;5.724;2023-02-28T02:53:34;4.40;;;3.20;;
68921;SDS011;55959;51.244;5.724;2023-02-28T02:56:06;5.33;;;3.53;;
68921;SDS011;55959;51.244;5.724;2023-02-28T02:58:35;4.30;;;3.53;;
68921;SDS011;55959;51.244;5.724;2023-02-28T03:01:08;5.83;;;3.60;;
68921;SDS011;55959;51.244;5.724;2023-02-28T03:03:39;4.03;;;3.40;;
68921;SDS011;55959;51.244;5.724;2023-02-28T03:06:05;3.67;;;3.17;;
68921;SDS011;55959;51.244;5.724;2023-02-28T03:08:35;4.27;;;3.43;;
68921;SDS011;55959;51.244;5.724;2023-02-28T03:11:04;4.07;;;3.67;;
68921;SDS011;55959;51.244;5.724;2023-02-28T03:25:27;4.87;;;3.87;;
68921;SDS011;55959;51.244;5.724;2023-02-28T03:31:06;5.13;;;3.83;;
68921;SDS011;55959;51.244;5.724;2023-02-28T03:34:10;3.90;;;3.27;;
68921;SDS011;55959;51.244;5.724;2023-02-28T03:36:51;4.17;;;3.63;;
68921;SDS011;55959;51.244;5.724;2023-02-28T03:39:25;3.53;;;3.20;;
68921;SDS011;55959;51.244;5.724;2023-02-28T03:42:01;4.47;;;4.07;;
68921;SDS011;55959;51.244;5.724;2023-02-28T03:44:49;5.40;;;4.20;;
68921;SDS011;55959;51.244;5.724;2023-02-28T03:56:04;5.20;;;3.73;;
68921;SDS011;55959;51.244;5.724;2023-02-28T03:58:41;6.70;;;4.47;;
68921;SDS011;55959;51.244;5.724;2023-02-28T04:01:22;4.10;;;3.70;;
68921;SDS011;55959;51.244;5.724;2023-02-28T04:03:55;5.10;;;3.53;;
68921;SDS011;55959;51.244;5.724;2023-02-28T04:06:22;5.43;;;4.47;;
68921;SDS011;55959;51.244;5.724;2023-02-28T04:08:48;4.40;;;4.00;;
68921;SDS011;55959;51.244;5.724;2023-02-28T04:11:18;6.07;;;4.30;;
68921;SDS011;55959;51.244;5.724;2023-02-28T04:13:52;5.67;;;4.10;;
68921;SDS011;55959;51.244;5.724;2023-02-28T04:16:18;7.20;;;3.80;;
68921;SDS011;55959;51.244;5.724;2023-02-28T04:18:44;4.67;;;3.90;;
68921;SDS011;55959;51.244;5.724;2023-02-28T04:21:10;4.67;;;3.97;;
68921;SDS011;55959;51.244;5.724;2023-02-28T04:23:37;3.90;;;3.30;;
68921;SDS011;55959;51.244;5.724;2023-02-28T04:26:03;4.13;;;3.50;;
68921;SDS011;55959;51.244;5.724;2023-02-28T04:28:30;5.37;;;4.13;;
68921;SDS011;55959;51.244;5.724;2023-02-28T04:31:01;4.47;;;3.60;;
68921;SDS011;55959;51.244;5.724;2023-02-28T04:33:30;6.33;;;3.80;;
68921;SDS011;55959;51.244;5.724;2023-02-28T04:35:59;4.20;;;3.80;;
68921;SDS011;55959;51.244;5.724;2023-02-28T04:38:25;5.00;;;4.00;;
68921;SDS011;55959;51.244;5.724;2023-02-28T04:40:51;4.00;;;3.60;;
68921;SDS011;55959;51.244;5.724;2023-02-28T04:43:17;5.00;;;3.90;;
68921;SDS011;55959;51.244;5.724;2023-02-28T04:45:43;6.63;;;3.97;;
68921;SDS011;55959;51.244;5.724;2023-02-28T04:48:09;4.47;;;3.80;;
68921;SDS011;55959;51.244;5.724;2023-02-28T04:50:34;4.10;;;3.70;;
68921;SDS011;55959;51.244;5.724;2023-02-28T04:53:00;5.23;;;3.97;;
68921;SDS011;55959;51.244;5.724;2023-02-28T04:55:26;5.17;;;3.97;;
68921;SDS011;55959;51.244;5.724;2023-02-28T04:57:52;5.93;;;3.87;;
68921;SDS011;55959;51.244;5.724;2023-02-28T05:00:18;5.80;;;4.13;;
68921;SDS011;55959;51.244;5.724;2023-02-28T05:02:44;4.50;;;3.60;;
68921;SDS011;55959;51.244;5.724;2023-02-28T05:05:10;4.93;;;3.77;;
68921;SDS011;55959;51.244;5.724;2023-02-28T05:07:41;4.97;;;3.70;;
68921;SDS011;55959;51.244;5.724;2023-02-28T05:10:07;7.03;;;3.90;;
68921;SDS011;55959;51.244;5.724;2023-02-28T05:12:34;3.97;;;3.57;;
68921;SDS011;55959;51.244;5.724;2023-02-28T05:15:00;4.93;;;4.03;;
68921;SDS011;55959;51.244;5.724;2023-02-28T05:17:27;4.50;;;3.37;;
68921;SDS011;55959;51.244;5.724;2023-02-28T05:19:53;4.33;;;3.40;;
68921;SDS011;55959;51.244;5.724;2023-02-28T05:22:19;4.47;;;3.70;;
68921;SDS011;55959;51.244;5.724;2023-02-28T05:24:45;3.93;;;3.40;;
68921;SDS011;55959;51.244;5.724;2023-02-28T05:27:11;4.23;;;3.80;;
68921;SDS011;55959;51.244;5.724;2023-02-28T05:29:37;5.87;;;4.27;;
68921;SDS011;55959;51.244;5.724;2023-02-28T05:32:11;4.37;;;3.70;;
68921;SDS011;55959;51.244;5.724;2023-02-28T05:34:38;3.93;;;3.53;;
68921;SDS011;55959;51.244;5.724;2023-02-28T05:37:05;7.70;;;4.13;;
68921;SDS011;55959;51.244;5.724;2023-02-28T05:39:36;6.90;;;3.50;;
68921;SDS011;55959;51.244;5.724;2023-02-28T05:42:03;5.23;;;3.50;;
68921;SDS011;55959;51.244;5.724;2023-02-28T05:44:29;4.37;;;3.97;;
68921;SDS011;55959;51.244;5.724;2023-02-28T05:46:55;5.80;;;3.93;;
68921;SDS011;55959;51.244;5.724;2023-02-28T05:49:21;7.90;;;3.90;;
68921;SDS011;55959;51.244;5.724;2023-02-28T05:51:47;4.43;;;3.83;;
68921;SDS011;55959;51.244;5.724;2023-02-28T05:54:13;5.20;;;4.03;;
68921;SDS011;55959;51.244;5.724;2023-02-28T05:56:39;6.50;;;3.90;;
68921;SDS011;55959;51.244;5.724;2023-02-28T05:59:08;5.77;;;4.27;;
68921;SDS011;55959;51.244;5.724;2023-02-28T06:01:36;4.40;;;3.87;;
68921;SDS011;55959;51.244;5.724;2023-02-28T06:04:12;5.07;;;4.20;;
68921;SDS011;55959;51.244;5.724;2023-02-28T06:06:47;6.47;;;4.03;;
68921;SDS011;55959;51.244;5.724;2023-02-28T06:09:14;4.90;;;3.93;;
68921;SDS011;55959;51.244;5.724;2023-02-28T06:11:41;6.07;;;3.83;;
68921;SDS011;55959;51.244;5.724;2023-02-28T06:14:07;5.80;;;3.87;;
68921;SDS011;55959;51.244;5.724;2023-02-28T06:16:39;4.87;;;4.47;;
68921;SDS011;55959;51.244;5.724;2023-02-28T06:19:05;6.23;;;4.07;;
68921;SDS011;55959;51.244;5.724;2023-02-28T06:21:31;5.93;;;3.77;;
68921;SDS011;55959;51.244;5.724;2023-02-28T06:23:58;5.13;;;4.20;;
68921;SDS011;55959;51.244;5.724;2023-02-28T06:26:25;4.93;;;3.97;;
68921;SDS011;55959;51.244;5.724;2023-02-28T06:28:51;5.07;;;4.10;;
68921;SDS011;55959;51.244;5.724;2023-02-28T06:31:17;4.90;;;4.27;;
68921;SDS011;55959;51.244;5.724;2023-02-28T06:33:44;5.53;;;4.33;;
68921;SDS011;55959;51.244;5.724;2023-02-28T06:36:11;6.13;;;3.97;;
68921;SDS011;55959;51.244;5.724;2023-02-28T06:38:39;4.63;;;3.73;;
68921;SDS011;55959;51.244;5.724;2023-02-28T06:41:06;4.57;;;3.87;;
68921;SDS011;55959;51.244;5.724;2023-02-28T06:43:34;4.87;;;3.90;;
68921;SDS011;55959;51.244;5.724;2023-02-28T06:46:03;5.90;;;4.13;;
68921;SDS011;55959;51.244;5.724;2023-02-28T06:48:33;5.53;;;4.10;;
68921;SDS011;55959;51.244;5.724;2023-02-28T06:51:06;5.40;;;4.13;;
68921;SDS011;55959;51.244;5.724;2023-02-28T06:53:39;4.07;;;3.67;;
68921;SDS011;55959;51.244;5.724;2023-02-28T06:56:06;5.40;;;4.23;;
68921;SDS011;55959;51.244;5.724;2023-02-28T06:58:35;5.77;;;4.13;;
68921;SDS011;55959;51.244;5.724;2023-02-28T07:01:02;5.03;;;3.87;;
68921;SDS011;55959;51.244;5.724;2023-02-28T07:03:29;4.53;;;4.13;;
68921;SDS011;55959;51.244;5.724;2023-02-28T07:05:55;5.37;;;4.10;;
68921;SDS011;55959;51.244;5.724;2023-02-28T07:08:22;5.10;;;4.00;;
68921;SDS011;55959;51.244;5.724;2023-02-28T07:10:53;5.83;;;4.37;;
68921;SDS011;55959;51.244;5.724;2023-02-28T07:13:20;6.53;;;4.60;;
68921;SDS011;55959;51.244;5.724;2023-02-28T07:15:56;7.27;;;5.03;;
68921;SDS011;55959;51.244;5.724;2023-02-28T07:18:25;4.73;;;3.97;;
68921;SDS011;55959;51.244;5.724;2023-02-28T07:20:52;4.40;;;4.00;;
68921;SDS011;55959;51.244;5.724;2023-02-28T07:23:19;6.10;;;4.13;;
68921;SDS011;55959;51.244;5.724;2023-02-28T07:25:45;7.03;;;4.70;;
68921;SDS011;55959;51.244;5.724;2023-02-28T07:28:11;5.63;;;4.13;;
68921;SDS011;55959;51.244;5.724;2023-02-28T07:30:38;5.87;;;4.30;;
68921;SDS011;55959;51.244;5.724;2023-02-28T07:33:07;4.80;;;4.07;;
68921;SDS011;55959;51.244;5.724;2023-02-28T07:35:33;6.20;;;4.47;;
68921;SDS011;55959;51.244;5.724;2023-02-28T07:37:59;6.70;;;4.57;;
68921;SDS011;55959;51.244;5.724;2023-02-28T07:40:26;7.57;;;4.57;;
68921;SDS011;55959;51.244;5.724;2023-02-28T07:42:54;5.87;;;4.60;;
68921;SDS011;55959;51.244;5.724;2023-02-28T07:45:20;6.37;;;4.57;;
68921;SDS011;55959;51.244;5.724;2023-02-28T07:48:04;5.00;;;4.30;;
68921;SDS011;55959;51.244;5.724;2023-02-28T07:50:35;6.70;;;4.77;;
68921;SDS011;55959;51.244;5.724;2023-02-28T07:53:05;5.00;;;3.93;;
68921;SDS011;55959;51.244;5.724;2023-02-28T07:55:37;4.33;;;3.93;;
68921;SDS011;55959;51.244;5.724;2023-02-28T07:58:12;5.97;;;4.03;;
68921;SDS011;55959;51.244;5.724;2023-02-28T08:00:48;5.33;;;3.80;;
68921;SDS011;55959;51.244;5.724;2023-02-28T08:03:20;8.20;;;4.10;;
68921;SDS011;55959;51.244;5.724;2023-02-28T08:06:02;7.00;;;4.23;;
68921;SDS011;55959;51.244;5.724;2023-02-28T08:08:55;6.63;;;4.03;;
68921;SDS011;55959;51.244;5.724;2023-02-28T08:11:24;5.67;;;4.00;;
68921;SDS011;55959;51.244;5.724;2023-02-28T08:14:12;5.00;;;3.90;;
68921;SDS011;55959;51.244;5.724;2023-02-28T08:16:41;6.70;;;4.13;;
68921;SDS011;55959;51.244;5.724;2023-02-28T08:19:08;6.57;;;4.03;;
68921;SDS011;55959;51.244;5.724;2023-02-28T08:21:34;4.80;;;3.37;;
68921;SDS011;55959;51.244;5.724;2023-02-28T08:24:00;4.90;;;3.83;;
68921;SDS011;55959;51.244;5.724;2023-02-28T08:26:26;4.87;;;3.57;;
68921;SDS011;55959;51.244;5.724;2023-02-28T08:28:55;5.63;;;3.27;;
68921;SDS011;55959;51.244;5.724;2023-02-28T08:31:21;4.97;;;3.43;;
68921;SDS011;55959;51.244;5.724;2023-02-28T08:33:53;4.00;;;3.00;;
68921;SDS011;55959;51.244;5.724;2023-02-28T08:36:30;3.87;;;2.80;;
68921;SDS011;55959;51.244;5.724;2023-02-28T08:39:00;3.80;;;2.90;;
68921;SDS011;55959;51.244;5.724;2023-02-28T08:41:52;4.23;;;3.00;;
68921;SDS011;55959;51.244;5.724;2023-02-28T08:44:18;6.03;;;3.03;;
68921;SDS011;55959;51.244;5.724;2023-02-28T08:53:53;2.97;;;2.67;;
68921;SDS011;55959;51.244;5.724;2023-02-28T08:56:29;3.97;;;2.90;;
68921;SDS011;55959;51.244;5.724;2023-02-28T09:02:19;3.73;;;2.60;;
68921;SDS011;55959;51.244;5.724;2023-02-28T09:04:46;3.50;;;2.50;;
68921;SDS011;55959;51.244;5.724;2023-02-28T09:10:42;7.83;;;2.77;;
68921;SDS011;55959;51.244;5.724;2023-02-28T09:13:08;2.90;;;2.60;;
68921;SDS011;55959;51.244;5.724;2023-02-28T09:15:39;3.83;;;2.43;;
68921;SDS011;55959;51.244;5.724;2023-02-28T09:18:11;3.23;;;2.50;;
68921;SDS011;55959;51.244;5.724;2023-02-28T09:20:38;3.77;;;2.50;;
68921;SDS011;55959;51.244;5.724;2023-02-28T09:26:15;3.17;;;2.70;;
68921;SDS011;55959;51.244;5.724;2023-02-28T09:29:11;4.40;;;2.73;;
68921;SDS011;55959;51.244;5.724;2023-02-28T09:32:00;4.33;;;2.50;;
68921;SDS011;55959;51.244;5.724;2023-02-28T09:38:44;2.27;;;1.90;;
68921;SDS011;55959;51.244;5.724;2023-02-28T09:41:30;2.30;;;2.10;;
68921;SDS011;55959;51.244;5.724;2023-02-28T09:51:05;3.37;;;2.27;;
68921;SDS011;55959;51.244;5.724;2023-02-28T10:03:59;2.03;;;1.83;;
68921;SDS011;55959;51.244;5.724;2023-02-28T10:23:44;2.50;;;1.87;;
68921;SDS011;55959;51.244;5.724;2023-02-28T10:26:16;1.93;;;1.60;;
68921;SDS011;55959;51.244;5.724;2023-02-28T10:29:57;1.50;;;1.40;;
68921;SDS011;55959;51.244;5.724;2023-02-28T10:32:49;2.73;;;1.70;;
68921;SDS011;55959;51.244;5.724;2023-02-28T10:35:45;2.23;;;1.80;;
68921;SDS011;55959;51.244;5.724;2023-02-28T10:38:19;1.60;;;1.50;;
68921;SDS011;55959;51.244;5.724;2023-02-28T10:41:48;1.70;;;1.33;;
68921;SDS011;55959;51.244;5.724;2023-02-28T10:44:20;2.40;;;1.30;;
68921;SDS011;55959;51.244;5.724;2023-02-28T10:46:51;1.67;;;1.57;;
68921;SDS011;55959;51.244;5.724;2023-02-28T10:49:30;1.37;;;1.27;;
68921;SDS011;55959;51.244;5.724;2023-02-28T11:00:22;1.70;;;1.53;;
68921;SDS011;55959;51.244;5.724;2023-02-28T11:03:02;1.77;;;1.50;;
68921;SDS011;55959;51.244;5.724;2023-02-28T11:13:46;1.80;;;1.30;;
68921;SDS011;55959;51.244;5.724;2023-02-28T11:16:48;2.33;;;1.93;;
68921;SDS011;55959;51.244;5.724;2023-02-28T11:23:11;1.77;;;1.67;;
68921;SDS011;55959;51.244;5.724;2023-02-28T11:26:01;2.63;;;1.60;;
68921;SDS011;55959;51.244;5.724;2023-02-28T11:28:44;1.70;;;1.60;;
68921;SDS011;55959;51.244;5.724;2023-02-28T11:31:25;2.67;;;1.77;;
68921;SDS011;55959;51.244;5.724;2023-02-28T11:34:27;2.90;;;1.73;;
68921;SDS011;55959;51.244;5.724;2023-02-28T11:53:19;2.50;;;1.80;;
68921;SDS011;55959;51.244;5.724;2023-02-28T11:59:29;2.57;;;1.77;;
68921;SDS011;55959;51.244;5.724;2023-02-28T12:15:37;4.63;;;2.50;;
68921;SDS011;55959;51.244;5.724;2023-02-28T12:22:16;4.17;;;2.27;;
68921;SDS011;55959;51.244;5.724;2023-02-28T12:27:41;2.53;;;1.80;;
68921;SDS011;55959;51.244;5.724;2023-02-28T12:36:48;2.90;;;1.80;;
68921;SDS011;55959;51.244;5.724;2023-02-28T12:40:00;2.00;;;1.80;;
68921;SDS011;55959;51.244;5.724;2023-02-28T12:49:41;2.97;;;2.43;;
68921;SDS011;55959;51.244;5.724;2023-02-28T12:52:34;2.70;;;2.00;;
68921;SDS011;55959;51.244;5.724;2023-02-28T12:58:51;2.67;;;2.10;;
68921;SDS011;55959;51.244;5.724;2023-02-28T13:01:58;2.70;;;1.70;;
68921;SDS011;55959;51.244;5.724;2023-02-28T13:10:58;3.37;;;2.10;;
68921;SDS011;55959;51.244;5.724;2023-02-28T13:13:38;3.50;;;2.10;;
68921;SDS011;55959;51.244;5.724;2023-02-28T13:16:19;3.83;;;2.47;;
68921;SDS011;55959;51.244;5.724;2023-02-28T13:18:49;3.93;;;2.20;;
68921;SDS011;55959;51.244;5.724;2023-02-28T13:21:27;5.43;;;2.40;;
68921;SDS011;55959;51.244;5.724;2023-02-28T13:29:04;4.30;;;2.43;;
68921;SDS011;55959;51.244;5.724;2023-02-28T13:32:36;2.10;;;1.97;;
68921;SDS011;55959;51.244;5.724;2023-02-28T13:38:47;2.80;;;2.03;;
68921;SDS011;55959;51.244;5.724;2023-02-28T13:52:33;1.87;;;1.70;;
68921;SDS011;55959;51.244;5.724;2023-02-28T14:13:14;2.40;;;2.20;;
68921;SDS011;55959;51.244;5.724;2023-02-28T14:16:46;3.07;;;2.07;;
68921;SDS011;55959;51.244;5.724;2023-02-28T14:39:44;3.50;;;2.37;;
68921;SDS011;55959;51.244;5.724;2023-02-28T14:42:31;2.60;;;1.83;;
68921;SDS011;55959;51.244;5.724;2023-02-28T14:50:32;2.30;;;2.10;;
68921;SDS011;55959;51.244;5.724;2023-02-28T14:56:00;2.47;;;2.23;;
68921;SDS011;55959;51.244;5.724;2023-02-28T14:58:33;2.97;;;1.83;;
68921;SDS011;55959;51.244;5.724;2023-02-28T15:08:15;3.63;;;2.30;;
68921;SDS011;55959;51.244;5.724;2023-02-28T15:10:57;2.30;;;2.07;;
68921;SDS011;55959;51.244;5.724;2023-02-28T15:16:44;2.17;;;1.97;;
68921;SDS011;55959;51.244;5.724;2023-02-28T15:19:22;2.00;;;1.80;;
68921;SDS011;55959;51.244;5.724;2023-02-28T15:29:28;2.67;;;2.20;;
68921;SDS011;55959;51.244;5.724;2023-02-28T15:32:16;3.50;;;2.47;;
68921;SDS011;55959;51.244;5.724;2023-02-28T15:35:28;4.37;;;2.37;;
68921;SDS011;55959;51.244;5.724;2023-02-28T15:38:01;4.73;;;2.00;;
68921;SDS011;55959;51.244;5.724;2023-02-28T15:40:45;2.63;;;2.23;;
68921;SDS011;55959;51.244;5.724;2023-02-28T15:43:31;2.80;;;2.13;;
68921;SDS011;55959;51.244;5.724;2023-02-28T15:46:04;2.50;;;2.30;;
68921;SDS011;55959;51.244;5.724;2023-02-28T15:56:28;4.40;;;2.20;;
68921;SDS011;55959;51.244;5.724;2023-02-28T15:59:01;2.43;;;2.00;;
68921;SDS011;55959;51.244;5.724;2023-02-28T16:01:37;2.60;;;2.20;;
68921;SDS011;55959;51.244;5.724;2023-02-28T16:04:11;2.50;;;2.00;;
68921;SDS011;55959;51.244;5.724;2023-02-28T16:07:00;2.57;;;2.37;;
68921;SDS011;55959;51.244;5.724;2023-02-28T16:09:40;3.10;;;2.40;;
68921;SDS011;55959;51.244;5.724;2023-02-28T16:12:08;2.60;;;2.40;;
68921;SDS011;55959;51.244;5.724;2023-02-28T16:14:38;3.30;;;2.70;;
68921;SDS011;55959;51.244;5.724;2023-02-28T16:17:06;2.40;;;2.10;;
68921;SDS011;55959;51.244;5.724;2023-02-28T16:19:47;2.77;;;2.57;;
68921;SDS011;55959;51.244;5.724;2023-02-28T16:22:28;2.73;;;2.47;;
68921;SDS011;55959;51.244;5.724;2023-02-28T16:24:59;3.97;;;2.70;;
68921;SDS011;55959;51.244;5.724;2023-02-28T16:27:35;4.37;;;2.30;;
68921;SDS011;55959;51.244;5.724;2023-02-28T16:30:21;4.00;;;2.60;;
68921;SDS011;55959;51.244;5.724;2023-02-28T16:32:56;3.30;;;2.80;;
68921;SDS011;55959;51.244;5.724;2023-02-28T16:35:32;3.93;;;2.30;;
68921;SDS011;55959;51.244;5.724;2023-02-28T16:38:00;4.17;;;3.00;;
68921;SDS011;55959;51.244;5.724;2023-02-28T16:40:29;4.10;;;2.67;;
68921;SDS011;55959;51.244;5.724;2023-02-28T16:43:15;3.00;;;2.60;;
68921;SDS011;55959;51.244;5.724;2023-02-28T16:45:58;2.90;;;2.60;;
68921;SDS011;55959;51.244;5.724;2023-02-28T16:52:25;2.60;;;2.40;;
68921;SDS011;55959;51.244;5.724;2023-02-28T16:58:28;4.40;;;2.70;;
68921;SDS011;55959;51.244;5.724;2023-02-28T17:01:18;2.60;;;2.40;;
68921;SDS011;55959;51.244;5.724;2023-02-28T17:03:55;3.10;;;2.80;;
68921;SDS011;55959;51.244;5.724;2023-02-28T17:06:34;3.60;;;2.77;;
68921;SDS011;55959;51.244;5.724;2023-02-28T17:09:22;2.50;;;2.30;;
68921;SDS011;55959;51.244;5.724;2023-02-28T17:12:36;4.03;;;2.60;;
68921;SDS011;55959;51.244;5.724;2023-02-28T17:15:19;3.23;;;2.53;;
68921;SDS011;55959;51.244;5.724;2023-02-28T17:17:48;3.17;;;2.43;;
68921;SDS011;55959;51.244;5.724;2023-02-28T17:20:21;2.30;;;2.10;;
68921;SDS011;55959;51.244;5.724;2023-02-28T17:22:48;3.03;;;2.67;;
68921;SDS011;55959;51.244;5.724;2023-02-28T17:25:26;2.67;;;1.70;;
68921;SDS011;55959;51.244;5.724;2023-02-28T17:28:04;2.67;;;2.10;;
68921;SDS011;55959;51.244;5.724;2023-02-28T17:30:42;2.50;;;2.30;;
68921;SDS011;55959;51.244;5.724;2023-02-28T17:33:32;3.10;;;2.47;;
68921;SDS011;55959;51.244;5.724;2023-02-28T18:15:30;2.40;;;2.20;;
68921;SDS011;55959;51.244;5.724;2023-02-28T18:45:56;2.57;;;2.17;;
68921;SDS011;55959;51.244;5.724;2023-02-28T18:48:34;2.73;;;2.40;;
68921;SDS011;55959;51.244;5.724;2023-02-28T18:51:11;3.63;;;3.00;;
68921;SDS011;55959;51.244;5.724;2023-02-28T18:53:56;3.83;;;2.70;;
68921;SDS011;55959;51.244;5.724;2023-02-28T18:56:25;3.67;;;2.80;;
68921;SDS011;55959;51.244;5.724;2023-02-28T18:58:54;2.60;;;2.40;;
68921;SDS011;55959;51.244;5.724;2023-02-28T19:01:28;2.60;;;2.40;;
68921;SDS011;55959;51.244;5.724;2023-02-28T19:04:03;2.60;;;2.40;;
68921;SDS011;55959;51.244;5.724;2023-02-28T19:06:37;2.73;;;2.47;;
68921;SDS011;55959;51.244;5.724;2023-02-28T19:09:33;2.80;;;2.40;;
68921;SDS011;55959;51.244;5.724;2023-02-28T19:12:19;2.63;;;2.23;;
68921;SDS011;55959;51.244;5.724;2023-02-28T19:14:51;3.87;;;3.00;;
68921;SDS011;55959;51.244;5.724;2023-02-28T19:17:22;3.37;;;2.50;;
68921;SDS011;55959;51.244;5.724;2023-02-28T19:20:07;4.57;;;2.43;;
68921;SDS011;55959;51.244;5.724;2023-02-28T19:22:34;4.33;;;3.43;;
68921;SDS011;55959;51.244;5.724;2023-02-28T19:25:08;3.00;;;2.70;;
68921;SDS011;55959;51.244;5.724;2023-02-28T19:27:35;3.10;;;2.70;;
68921;SDS011;55959;51.244;5.724;2023-02-28T19:30:01;3.10;;;2.60;;
68921;SDS011;55959;51.244;5.724;2023-02-28T19:32:39;5.03;;;3.10;;
68921;SDS011;55959;51.244;5.724;2023-02-28T19:35:08;5.10;;;3.07;;
68921;SDS011;55959;51.244;5.724;2023-02-28T19:37:37;3.83;;;2.90;;
68921;SDS011;55959;51.244;5.724;2023-02-28T19:40:05;3.77;;;3.00;;
68921;SDS011;55959;51.244;5.724;2023-02-28T19:42:33;3.30;;;3.00;;
68921;SDS011;55959;51.244;5.724;2023-02-28T19:45:03;3.67;;;3.03;;
68921;SDS011;55959;51.244;5.724;2023-02-28T19:47:31;3.10;;;2.80;;
68921;SDS011;55959;51.244;5.724;2023-02-28T19:49:57;4.67;;;3.63;;
68921;SDS011;55959;51.244;5.724;2023-02-28T19:52:26;3.20;;;2.60;;
68921;SDS011;55959;51.244;5.724;2023-02-28T19:54:55;6.50;;;3.40;;
68921;SDS011;55959;51.244;5.724;2023-02-28T19:57:31;7.10;;;3.47;;
68921;SDS011;55959;51.244;5.724;2023-02-28T19:59:59;4.17;;;3.60;;
68921;SDS011;55959;51.244;5.724;2023-02-28T20:02:26;4.20;;;3.30;;
68921;SDS011;55959;51.244;5.724;2023-02-28T20:04:52;5.10;;;3.80;;
68921;SDS011;55959;51.244;5.724;2023-02-28T20:07:19;4.70;;;3.50;;
68921;SDS011;55959;51.244;5.724;2023-02-28T20:09:46;6.20;;;3.70;;
68921;SDS011;55959;51.244;5.724;2023-02-28T20:15:54;4.40;;;3.93;;
68921;SDS011;55959;51.244;5.724;2023-02-28T20:21:59;4.20;;;3.47;;
68921;SDS011;55959;51.244;5.724;2023-02-28T20:24:31;4.17;;;3.77;;
68921;SDS011;55959;51.244;5.724;2023-02-28T20:27:12;4.37;;;3.30;;
68921;SDS011;55959;51.244;5.724;2023-02-28T20:29:43;4.90;;;4.10;;
68921;SDS011;55959;51.244;5.724;2023-02-28T20:35:36;5.40;;;3.53;;
68921;SDS011;55959;51.244;5.724;2023-02-28T20:38:16;4.10;;;3.60;;
68921;SDS011;55959;51.244;5.724;2023-02-28T20:40:44;4.47;;;3.93;;
68921;SDS011;55959;51.244;5.724;2023-02-28T20:43:29;4.60;;;3.70;;
68921;SDS011;55959;51.244;5.724;2023-02-28T20:45:56;5.30;;;3.77;;
68921;SDS011;55959;51.244;5.724;2023-02-28T20:48:32;4.13;;;3.77;;
68921;SDS011;55959;51.244;5.724;2023-02-28T20:51:16;5.57;;;4.10;;
68921;SDS011;55959;51.244;5.724;2023-02-28T20:53:51;6.03;;;4.30;;
68921;SDS011;55959;51.244;5.724;2023-02-28T20:56:46;4.13;;;3.73;;
68921;SDS011;55959;51.244;5.724;2023-02-28T20:59:20;5.23;;;3.87;;
68921;SDS011;55959;51.244;5.724;2023-02-28T21:01:47;5.23;;;4.17;;
68921;SDS011;55959;51.244;5.724;2023-02-28T21:04:33;4.53;;;4.00;;
68921;SDS011;55959;51.244;5.724;2023-02-28T21:07:08;4.23;;;3.80;;
68921;SDS011;55959;51.244;5.724;2023-02-28T21:09:34;4.57;;;3.77;;
68921;SDS011;55959;51.244;5.724;2023-02-28T21:12:04;5.70;;;3.77;;
68921;SDS011;55959;51.244;5.724;2023-02-28T21:14:39;5.87;;;4.00;;
68921;SDS011;55959;51.244;5.724;2023-02-28T21:17:37;4.80;;;4.00;;
68921;SDS011;55959;51.244;5.724;2023-02-28T21:20:21;4.57;;;4.17;;
68921;SDS011;55959;51.244;5.724;2023-02-28T21:23:19;5.93;;;4.17;;
68921;SDS011;55959;51.244;5.724;2023-02-28T21:25:48;5.50;;;3.73;;